Date,TemperatureHighF,TemperatureAvgF,TemperatureLowF,DewpointHighF,DewpointAvgF,DewpointLowF,HumidityHigh,HumidityAvg,HumidityLow,PressureMaxIn,PressureMinIn,WindSpeedMaxMPH,WindSpeedAvgMPH,GustSpeedMaxMPH,PrecipitationSumIn
2014-1-1,45,32,21,29,24,20,96,75,47,30.37,30.10,6,1,0,0.00
2014-1-2,38,32,27,37,31,26,99,97,91,30.09,29.50,6,1,0,0.01
2014-1-3,27,16,2,27,11,1,99,81,53,30.44,29.51,1,0,0,0.00
2014-1-4,34,17,0,23,11,-2,98,79,51,30.49,30.22,8,1,0,0.05
2014-1-5,59,39,22,59,36,21,99,91,72,30.22,29.65,9,1,0,0.23
2014-1-6,62,42,13,60,37,1,99,81,50,29.96,29.38,18,10,0,0.64
2014-1-7,17,10,5,5,-2,-7,86,58,45,30.41,29.97,19,8,0,0.00
2014-1-8,25,15,6,14,9,3,91,76,48,30.58,30.41,2,0,0,0.00
2014-1-9,41,26,19,24,20,13,94,77,47,30.62,30.45,4,0,0,0.00
2014-1-10,46,35,24,46,34,23,99,97,91,30.50,30.07,3,1,0,0.79
2014-1-11,64,56,47,63,56,46,99,99,96,30.06,29.34,11,5,0,0.86
2014-1-12,50,42,29,50,35,28,99,79,60,30.07,29.45,14,5,0,0.00
2014-1-13,58,44,26,42,36,26,99,76,51,30.07,29.85,12,4,0,0.00
2014-1-14,51,46,35,49,44,34,99,94,70,29.85,29.64,9,2,0,0.36
2014-1-15,56,44,36,48,40,36,99,90,63,29.92,29.80,7,3,0,0.01
2014-1-16,40,33,22,36,28,20,96,81,59,29.95,29.82,8,3,0,0.00
2014-1-17,50,36,22,34,30,21,99,81,49,29.93,29.75,7,2,0,0.00
2014-1-18,41,32,19,36,23,13,88,71,52,29.91,29.69,17,7,0,0.00
2014-1-19,48,34,18,30,24,13,92,68,48,29.92,29.67,9,3,0,0.00
2014-1-20,52,40,28,33,30,26,90,68,46,29.82,29.57,6,3,0,0.00
2014-1-21,31,24,14,28,22,13,98,92,75,29.83,29.66,14,4,0,0.00
2014-1-22,16,9,2,13,2,-2,95,73,54,30.04,29.76,12,5,0,0.00
2014-1-23,25,14,-2,14,6,-3,95,70,54,30.35,30.03,13,4,0,0.00
2014-1-24,21,14,7,6,3,0,75,62,50,30.47,30.09,11,4,0,0.00
2014-1-25,31,24,18,22,14,6,93,63,52,30.07,29.41,16,7,0,0.00
2014-1-26,33,27,14,25,14,6,83,58,44,29.88,29.55,18,4,0,0.00
2014-1-27,48,36,22,36,24,8,74,63,47,30.11,29.59,16,6,0,0.05
2014-1-28,21,16,12,10,3,-1,89,55,44,30.39,30.11,16,4,0,0.00
2014-1-29,20,12,3,10,4,0,93,73,47,30.33,30.13,10,2,0,0.00
2014-1-30,30,12,-6,12,4,-9,95,73,39,30.44,30.16,4,1,0,0.01
2014-1-31,48,28,9,26,20,8,96,75,39,30.19,30.06,4,1,0,0.00
2014-2-1,53,37,20,40,29,20,98,79,42,30.25,29.95,7,2,0,0.00
2014-2-2,68,46,32,42,38,32,99,76,39,29.99,29.86,5,2,0,0.00
2014-2-3,43,36,32,40,36,31,99,97,82,30.26,29.88,7,3,0,1.65
2014-2-4,43,33,27,32,29,24,99,84,63,30.42,30.08,6,2,0,0.03
2014-2-5,38,34,32,37,33,27,99,95,75,30.08,29.62,15,4,0,0.61
2014-2-6,38,30,25,27,22,18,85,72,54,30.27,29.98,8,3,0,0.00
2014-2-7,43,30,20,28,23,19,97,76,51,30.30,30.20,6,1,0,0.00
2014-2-8,35,27,20,24,20,15,98,76,48,30.30,30.13,4,1,0,0.00
2014-2-9,37,27,17,28,22,15,99,82,52,30.16,29.92,4,1,0,0.00
2014-2-10,33,26,15,27,18,12,99,73,52,30.28,30.00,11,4,0,0.00
2014-2-11,36,22,15,18,13,10,94,70,41,30.43,30.27,8,2,0,0.00
2014-2-12,32,23,12,26,17,8,97,76,55,30.48,30.08,6,3,0,0.00
2014-2-13,37,33,27,36,33,26,99,98,94,30.08,29.12,12,5,0,1.87
2014-2-14,51,38,28,37,31,25,99,77,57,29.68,29.21,11,3,0,0.08
2014-2-15,38,33,28,37,30,19,99,89,69,29.84,29.45,16,4,0,0.25
2014-2-16,39,30,24,24,19,15,81,66,46,30.13,29.85,9,4,0,0.00
2014-2-17,40,29,20,22,17,13,83,62,34,30.40,30.14,9,3,0,0.00
2014-2-18,54,37,27,37,30,20,99,79,47,30.24,29.96,11,2,0,0.39
2014-2-19,60,45,28,54,39,26,98,81,59,30.07,29.63,10,4,0,0.27
2014-2-20,48,37,26,38,33,25,98,85,69,30.18,29.90,5,1,0,0.00
2014-2-21,68,50,34,62,48,34,99,94,80,29.90,29.60,14,3,0,0.81
2014-2-22,59,44,29,44,35,28,99,73,39,30.05,29.90,9,3,0,0.01
2014-2-23,66,50,40,41,37,32,85,63,39,29.98,29.80,8,3,0,0.00
2014-2-24,44,37,25,37,24,15,93,61,35,30.08,29.85,18,6,0,0.00
2014-2-25,33,28,20,30,25,18,99,88,72,30.08,29.93,6,2,0,0.06
2014-2-26,36,27,16,30,22,10,99,81,53,29.97,29.78,12,2,0,0.10
2014-2-27,39,26,12,27,15,6,96,65,40,30.08,29.60,14,5,0,0.00
2014-2-28,34,18,9,9,5,-1,83,57,27,30.37,30.09,9,2,0,0.00
2014-3-1,47,29,12,28,19,9,94,71,39,30.37,30.12,5,1,0,0.00
2014-3-2,53,36,27,38,33,24,99,88,55,30.12,29.92,7,1,0,0.32
2014-3-3,35,21,2,35,19,0,99,92,77,30.29,29.92,9,3,0,0.32
2014-3-4,41,19,1,22,12,-1,95,76,46,30.36,30.20,5,1,0,0.16
2014-3-5,49,33,20,24,19,16,92,60,30,30.35,30.14,7,2,0,0.28
2014-3-6,38,30,23,25,21,17,83,70,50,30.53,30.33,8,4,0,0.00
2014-3-7,40,34,29,34,30,25,88,83,77,30.32,29.85,7,4,0,0.00
2014-3-8,63,50,38,43,38,34,94,68,46,29.88,29.79,11,3,0,0.00
2014-3-9,52,42,33,38,31,24,91,66,40,30.01,29.82,12,4,0,0.00
2014-3-10,56,44,32,39,32,24,73,63,48,29.96,29.59,9,3,0,0.00
2014-3-11,74,53,38,46,40,33,89,63,37,29.64,29.56,8,2,0,0.00
2014-3-12,68,51,35,56,45,27,97,82,50,29.58,28.96,20,5,0,0.35
2014-3-13,35,29,23,26,14,8,73,54,35,30.12,29.31,22,11,0,0.00
2014-3-14,51,38,22,31,22,12,75,53,36,30.19,29.85,14,5,0,0.00
2014-3-15,67,53,41,42,34,28,66,49,28,29.97,29.76,15,6,0,0.00
2014-3-16,50,38,29,31,27,21,98,67,34,30.11,29.98,6,2,0,0.00
2014-3-17,31,27,25,27,24,21,99,87,76,30.04,29.90,7,2,0,0.00
2014-3-18,46,35,24,32,27,19,85,73,54,30.18,30.00,10,3,0,0.46
2014-3-19,51,41,33,50,39,30,99,91,83,30.17,29.80,10,3,0,0.30
2014-3-20,60,49,42,45,38,28,99,70,38,29.93,29.74,14,6,0,0.00
2014-3-21,59,44,29,42,34,26,94,69,48,30.02,29.93,11,3,0,0.00
2014-3-22,67,48,32,43,38,31,99,70,43,29.97,29.76,10,4,0,0.00
2014-3-23,48,40,30,34,31,22,93,69,51,30.06,29.92,7,2,0,0.01
2014-3-24,41,31,21,23,17,13,85,57,36,30.25,30.07,10,3,0,0.00
2014-3-25,39,29,18,33,26,16,99,88,59,30.11,29.77,11,2,0,0.00
2014-3-26,38,31,26,30,21,12,99,68,38,30.25,29.77,18,8,0,0.09
2014-3-27,48,36,19,30,20,13,85,54,33,30.41,30.20,9,3,0,0.00
2014-3-28,67,56,37,55,48,30,82,75,66,30.19,29.94,14,7,0,0.00
2014-3-29,62,58,54,62,57,54,99,97,79,30.04,29.50,8,3,0,2.27
2014-3-30,61,47,37,61,46,37,99,99,98,29.68,29.35,13,6,0,1.34
2014-3-31,63,48,37,46,40,36,99,75,45,30.01,29.69,16,5,0,0.01
2014-4-1,66,50,32,44,39,31,96,68,46,30.11,29.92,7,2,0,0.00
2014-4-2,70,52,38,52,45,37,99,81,48,30.06,29.95,5,1,0,0.00
2014-4-3,74,56,48,55,49,44,98,79,47,30.03,29.89,7,2,0,0.00
2014-4-4,55,49,46,49,45,41,99,86,76,29.92,29.61,12,4,0,0.00
2014-4-5,61,51,41,49,42,33,99,73,49,30.08,29.64,17,5,0,0.00
2014-4-6,61,44,30,35,31,26,93,63,29,30.19,30.08,6,2,0,0.00
2014-4-7,58,48,33,58,46,30,99,93,73,30.14,29.59,8,2,0,0.29
2014-4-8,65,58,44,62,53,40,99,83,54,29.60,29.40,11,5,0,0.16
2014-4-9,69,52,35,46,40,34,99,68,35,29.95,29.58,16,3,0,0.00
2014-4-10,70,54,33,44,38,32,98,59,34,30.17,29.96,12,4,0,0.00
2014-4-11,81,66,56,54,50,43,84,60,36,30.00,29.84,11,5,0,0.00
2014-4-12,82,66,47,56,48,42,99,60,27,30.19,29.96,9,2,0,0.00
2014-4-13,81,68,50,63,58,48,99,74,53,30.10,29.93,11,5,0,0.00
2014-4-14,78,69,62,64,61,58,89,75,57,29.95,29.75,16,8,0,0.01
2014-4-15,69,59,34,68,57,34,99,95,82,29.90,29.47,14,7,0,1.19
2014-4-16,55,41,30,36,30,24,99,66,41,30.49,29.91,12,4,0,0.10
2014-4-17,55,41,28,40,34,28,99,79,55,30.62,30.49,9,3,0,0.00
2014-4-18,60,48,39,44,39,35,92,73,51,30.52,30.21,6,2,0,0.00
2014-4-19,75,54,38,50,43,37,99,71,35,30.24,30.13,6,2,0,0.00
2014-4-20,64,50,38,45,39,28,97,66,45,30.37,30.23,10,3,0,0.00
2014-4-21,75,54,31,52,43,29,98,69,42,30.23,29.83,5,2,0,0.00
2014-4-22,79,60,45,59,52,44,99,78,44,29.83,29.48,9,3,0,0.00
2014-4-23,65,54,44,53,42,35,95,65,51,29.88,29.52,16,8,0,0.00
2014-4-24,67,51,39,36,33,29,86,54,29,30.01,29.88,13,4,0,0.00
2014-4-25,72,52,32,51,40,32,99,70,31,29.97,29.62,14,3,0,0.37
2014-4-26,76,62,45,54,50,40,99,69,44,29.81,29.61,10,4,0,0.00
2014-4-27,72,59,41,50,43,37,94,58,38,30.04,29.78,9,3,0,0.08
2014-4-28,71,53,39,50,45,39,99,77,41,30.06,29.92,7,2,0,0.35
2014-4-29,50,48,46,48,47,46,99,96,90,30.17,30.02,12,5,0,0.86
2014-4-30,67,59,48,67,58,48,99,99,98,30.14,29.78,9,4,0,2.36
2014-5-1,82,71,62,67,65,59,99,83,57,29.79,29.60,11,4,0,0.02
2014-5-2,74,63,54,58,51,46,95,67,42,29.80,29.67,9,2,0,0.00
2014-5-3,73,62,50,58,52,47,99,72,42,29.81,29.66,9,2,0,0.02
2014-5-4,75,60,46,55,49,42,99,72,39,29.81,29.63,12,2,0,0.01
2014-5-5,71,58,44,48,44,39,84,61,40,29.94,29.81,9,4,0,0.00
2014-5-6,78,61,48,55,51,47,99,73,40,29.97,29.84,7,2,0,0.01
2014-5-7,71,56,43,56,49,42,99,82,43,30.19,29.99,6,2,0,0.15
2014-5-8,90,68,54,70,61,52,97,81,50,30.10,29.93,7,2,0,0.00
2014-5-9,78,64,57,69,61,56,99,92,72,30.05,29.88,6,2,0,0.00
2014-5-10,83,71,62,71,66,62,99,83,64,29.91,29.82,12,4,0,0.00
2014-5-11,86,70,55,65,58,54,99,69,37,30.04,29.86,7,2,0,0.00
2014-5-12,88,72,53,72,65,53,99,80,58,30.06,29.95,9,3,0,0.00
2014-5-13,97,73,56,77,65,55,99,81,48,30.16,29.94,7,2,0,0.00
2014-5-14,68,62,56,65,60,56,99,96,89,30.17,30.06,5,2,0,0.01
2014-5-15,86,72,61,75,67,60,99,86,60,30.09,29.88,12,4,0,0.00
2014-5-16,75,66,55,69,64,55,99,94,73,29.88,29.70,12,3,0,1.86
2014-5-17,75,61,48,56,51,47,99,75,46,30.06,29.82,7,2,0,0.11
2014-5-18,75,60,45,55,49,44,99,71,41,30.15,30.06,5,2,0,0.00
2014-5-19,78,60,40,54,47,39,99,68,36,30.20,30.06,8,2,0,0.00
2014-5-20,84,68,48,58,53,48,99,65,35,30.13,29.94,6,1,0,0.00
2014-5-21,82,67,58,68,61,52,99,81,62,29.94,29.80,4,1,0,0.51
2014-5-22,91,71,58,75,66,58,99,84,56,29.81,29.64,6,2,0,0.12
2014-5-23,81,68,55,63,56,50,99,67,46,29.90,29.76,6,3,0,0.00
2014-5-24,84,66,50,64,56,48,98,73,48,30.01,29.89,6,2,0,0.01
2014-5-25,90,69,51,66,57,51,99,70,31,30.08,29.98,6,1,0,0.00
2014-5-26,91,73,55,71,63,55,99,74,47,30.05,29.88,9,2,0,0.00
2014-5-27,94,76,61,74,68,60,99,80,51,29.88,29.74,7,2,0,1.08
2014-5-28,88,70,56,76,67,55,99,90,66,30.02,29.73,7,2,0,0.00
2014-5-29,57,56,54,56,54,54,99,96,93,30.13,30.01,6,1,0,0.16
2014-5-30,76,62,54,64,58,54,99,87,61,30.07,29.96,5,1,0,0.04
2014-5-31,85,68,53,63,57,52,99,72,39,30.20,29.99,5,1,0,0.01
2014-6-1,84,66,46,61,52,44,99,65,37,30.30,30.18,5,1,0,0.03
2014-6-2,82,66,44,61,54,43,98,67,45,30.21,29.98,8,3,0,0.00
2014-6-3,91,73,58,72,65,55,99,80,46,29.99,29.75,8,2,0,0.03
2014-6-4,95,78,64,75,68,63,99,76,40,29.76,29.61,5,1,0,0.01
2014-6-5,84,70,59,70,65,57,99,85,55,29.74,29.49,6,2,0,0.26
2014-6-6,87,69,53,62,58,53,99,73,42,29.89,29.74,5,1,0,0.00
2014-6-7,91,72,52,66,59,52,99,70,38,29.95,29.86,9,1,0,0.01
2014-6-8,91,73,55,69,60,55,99,69,36,29.90,29.77,8,2,0,0.02
2014-6-9,88,77,68,72,69,65,94,77,52,29.81,29.76,9,3,0,0.15
2014-6-10,91,76,69,79,73,69,98,90,68,29.85,29.77,7,1,0,1.23
2014-6-11,82,72,67,75,70,66,99,94,78,29.96,29.83,5,2,0,0.08
2014-6-12,76,71,67,73,70,67,99,96,85,29.93,29.76,5,2,0,0.39
2014-6-13,89,75,69,77,72,69,99,91,66,29.76,29.64,6,1,0,0.91
2014-6-14,81,70,58,69,62,54,99,76,50,30.00,29.71,7,2,0,0.00
2014-6-15,88,69,51,65,59,50,98,73,47,30.09,29.99,5,1,0,0.00
2014-6-16,99,77,56,75,67,55,99,74,43,30.06,29.96,4,1,0,0.00
2014-6-17,99,84,69,78,73,68,99,74,47,30.01,29.87,5,2,0,0.00
2014-6-18,98,86,74,79,75,71,92,73,53,29.90,29.81,9,3,0,0.00
2014-6-19,90,77,66,78,72,65,99,85,64,29.97,29.81,6,1,0,0.67
2014-6-20,90,74,61,66,61,56,99,70,35,29.95,29.84,5,1,0,0.00
2014-6-21,79,69,61,68,64,60,97,85,65,29.85,29.78,4,0,0,0.04
2014-6-22,84,73,63,70,64,59,96,76,46,29.93,29.79,6,1,0,0.00
2014-6-23,89,72,56,68,61,55,99,71,41,30.08,29.93,7,2,0,0.00
2014-6-24,90,76,57,70,65,55,97,72,43,30.07,29.93,10,3,0,0.00
2014-6-25,92,81,70,79,74,68,98,81,59,29.94,29.74,9,4,0,0.00
2014-6-26,93,79,68,78,72,67,99,81,53,29.88,29.74,5,1,0,0.49
2014-6-27,86,73,59,73,67,57,99,83,57,30.11,29.88,5,1,0,0.00
2014-6-28,94,74,56,69,62,56,99,71,41,30.20,30.11,5,1,0,0.00
2014-6-29,94,77,55,69,62,54,98,63,38,30.17,30.04,8,2,0,0.00
2014-6-30,91,78,63,73,67,63,99,73,49,30.04,29.87,6,2,0,0.00
2014-7-1,93,82,69,77,72,68,98,76,54,29.89,29.77,10,4,0,0.00
2014-7-2,98,85,74,82,76,71,97,77,57,29.82,29.74,12,3,0,0.00
2014-7-3,95,80,69,80,74,68,99,83,63,29.90,29.80,10,3,0,0.13
2014-7-4,86,72,58,72,65,54,99,80,49,30.05,29.81,8,2,0,0.09
2014-7-5,90,72,54,64,57,51,94,64,33,30.15,30.04,6,1,0,0.00
2014-7-6,88,73,56,67,62,55,99,71,43,30.07,29.89,9,3,0,0.00
2014-7-7,94,81,70,72,69,65,87,69,44,29.88,29.73,8,4,0,0.00
2014-7-8,95,83,70,76,72,67,96,72,50,29.80,29.63,10,5,0,0.29
2014-7-9,92,79,71,77,73,69,98,83,57,29.87,29.72,8,2,0,0.12
2014-7-10,94,75,69,80,72,67,98,90,63,30.03,29.87,5,1,0,1.00
2014-7-11,96,77,65,77,70,64,99,83,53,30.14,30.01,6,1,0,0.00
2014-7-12,94,78,63,76,69,62,99,79,50,30.15,30.04,6,2,0,0.00
2014-7-13,94,81,70,79,74,68,96,81,62,30.05,29.83,9,4,0,0.00
2014-7-14,95,81,72,80,75,70,99,83,60,29.90,29.70,9,3,0,0.61
2014-7-15,96,78,71,82,75,70,99,90,62,29.74,29.59,6,2,0,0.79
2014-7-16,90,76,63,75,69,61,99,83,49,29.82,29.66,3,1,0,0.15
2014-7-17,89,73,57,70,63,56,99,74,46,30.04,29.80,6,1,0,0.00
2014-7-18,95,74,55,70,62,54,98,72,35,30.14,30.04,3,0,0,0.00
2014-7-19,85,73,63,70,66,61,97,80,52,30.12,30.04,5,1,0,0.00
2014-7-20,82,73,64,73,68,62,98,87,72,30.05,29.96,3,1,0,0.00
2014-7-21,93,74,60,74,67,60,99,82,54,30.10,30.03,4,1,0,0.00
2014-7-22,94,78,63,75,68,62,98,75,50,30.11,29.99,5,2,0,0.00
2014-7-23,94,80,66,79,73,64,99,82,60,29.99,29.72,9,3,0,0.29
2014-7-24,88,74,63,73,69,62,99,86,59,29.83,29.73,4,1,0,0.02
2014-7-25,92,73,55,68,61,53,96,69,38,29.95,29.82,4,1,0,0.02
2014-7-26,88,71,57,77,67,56,98,88,65,29.93,29.81,6,1,0,0.05
2014-7-27,85,77,70,76,73,68,98,86,71,29.80,29.54,8,3,0,0.00
2014-7-28,88,79,69,77,69,63,95,74,51,29.68,29.46,9,3,0,0.00
2014-7-29,83,70,58,66,61,56,96,76,51,29.90,29.68,6,1,0,0.00
2014-7-30,83,67,56,60,57,54,96,74,43,29.98,29.90,4,1,0,0.00
2014-7-31,89,72,54,70,64,53,98,77,47,30.05,29.97,8,2,0,0.00
2014-8-1,85,74,67,75,69,66,96,87,70,30.10,30.05,6,2,0,0.12
2014-8-2,83,71,63,74,68,62,99,89,72,30.07,29.99,4,1,0,0.33
2014-8-3,85,73,68,76,70,67,99,91,72,30.01,29.92,4,1,0,0.96
2014-8-4,91,75,64,74,68,64,99,84,54,30.00,29.95,4,1,0,0.02
2014-8-5,97,76,60,74,67,60,98,77,44,29.97,29.84,3,0,0,0.00
2014-8-6,90,77,63,72,68,62,98,76,53,29.84,29.80,3,1,0,0.00
2014-8-7,92,75,60,68,64,60,99,74,43,29.92,29.82,5,1,0,0.00
2014-8-8,89,75,54,68,62,53,98,69,42,30.04,29.96,4,1,0,0.00
2014-8-9,95,81,60,71,67,60,98,66,40,30.04,29.98,4,1,0,0.00
2014-8-10,94,74,58,75,63,57,99,74,39,30.05,29.99,4,1,0,0.01
2014-8-11,88,71,53,70,63,52,98,79,50,30.05,29.95,8,1,0,0.00
2014-8-12,78,73,68,74,71,67,99,94,85,29.94,29.68,7,2,0,1.44
2014-8-13,85,75,65,75,68,62,99,80,59,29.78,29.62,7,3,0,0.05
2014-8-14,83,69,56,64,60,54,97,76,48,29.86,29.76,8,2,0,0.00
2014-8-15,84,67,51,60,56,50,98,73,41,29.93,29.82,5,1,0,0.00
2014-8-16,91,71,55,72,62,54,97,76,44,29.93,29.85,4,1,0,0.00
2014-8-17,91,74,57,74,67,56,99,81,57,29.85,29.76,7,1,0,0.00
2014-8-18,90,73,58,72,65,57,99,78,50,29.85,29.72,5,1,0,0.00
2014-8-19,92,76,66,74,68,63,96,80,48,29.79,29.71,5,1,0,0.00
2014-9-6,79,68,70,72,65,68,97,85,80,29.88,29.80,7,1,0,0.63
2014-9-7,88,73,63,70,66,62,99,80,49,30.07,29.86,4,1,0,0.05
2014-9-8,75,68,62,69,64,61,99,85,67,30.15,30.06,8,1,0,0.00
2014-9-9,83,71,65,70,66,63,95,86,64,30.09,29.99,8,2,0,0.00
2014-9-10,89,72,59,70,65,58,99,80,47,30.03,29.92,5,1,0,0.00
2014-9-11,91,77,65,76,71,64,96,83,59,29.93,29.76,10,3,0,0.00
2014-9-12,86,72,59,70,62,57,96,75,48,30.05,29.84,5,1,0,0.00
2014-9-13,75,64,56,70,62,56,99,94,82,30.10,29.98,3,1,0,0.08
2014-9-14,79,61,48,60,54,47,99,80,45,30.23,30.10,4,1,0,0.01
2014-9-15,83,62,43,58,52,43,99,75,41,30.17,29.97,4,1,0,0.00
2014-9-16,86,67,53,67,59,52,98,79,46,29.97,29.87,6,1,0,0.06
2014-9-17,89,64,46,61,52,45,98,72,32,29.98,29.86,3,1,0,0.00
2014-9-18,82,62,45,63,56,44,98,82,48,30.00,29.87,4,0,0,0.00
2014-9-19,80,63,49,65,57,48,99,83,55,30.23,30.00,5,1,0,0.00
2014-9-20,88,68,52,68,60,52,99,80,46,30.20,29.94,5,1,0,0.00
2014-9-21,92,73,62,72,65,61,99,81,42,29.95,29.54,4,1,0,0.00
2014-9-22,79,66,51,66,54,47,89,67,45,30.10,29.59,8,3,0,0.00
2014-9-23,78,57,40,53,47,39,98,75,40,30.30,30.10,4,1,0,0.00
2014-9-24,74,60,45,63,56,44,99,86,67,30.38,30.25,7,2,0,0.03
2014-9-25,65,62,60,64,62,59,99,98,95,30.24,30.10,7,2,0,1.42
2014-9-26,83,64,51,63,57,51,99,81,45,30.15,30.08,4,1,0,0.00
2014-9-27,91,66,46,66,56,46,99,77,40,30.14,30.05,4,1,0,0.00
2014-9-28,89,65,49,66,58,49,99,82,42,30.11,29.95,4,1,0,0.00
2014-9-29,74,66,55,68,63,54,99,91,77,29.94,29.83,3,1,0,0.05
2014-9-30,88,70,57,69,63,56,99,82,51,29.85,29.74,4,1,0,0.00
2014-10-1,79,66,56,66,61,56,99,86,59,29.97,29.85,3,1,0,0.00
2014-10-2,76,62,51,65,58,51,99,88,65,30.05,29.96,5,1,0,0.00
2014-10-3,81,63,48,66,58,48,99,84,59,30.01,29.68,8,2,0,0.01
2014-10-4,77,64,44,69,57,38,99,77,56,29.71,29.49,9,4,0,0.14
2014-10-5,66,48,33,46,39,33,99,74,40,29.90,29.71,9,2,0,0.00
2014-10-6,75,57,37,54,45,36,99,71,39,29.98,29.89,9,3,0,0.00
2014-10-7,75,66,60,64,57,54,97,74,52,29.97,29.81,10,4,0,0.39
2014-10-8,79,66,55,64,58,50,99,77,44,29.91,29.74,8,3,0,0.12
2014-10-9,76,58,42,53,47,41,99,72,32,30.04,29.91,6,1,0,0.00
2014-10-10,64,57,54,57,54,50,98,88,66,30.04,29.95,2,0,0,0.17
2014-10-11,58,54,52,58,54,52,99,98,95,30.07,29.88,3,1,0,0.56
2014-10-12,73,57,44,56,50,43,99,82,49,30.20,30.06,5,1,0,0.00
2014-10-13,67,61,55,66,59,51,99,94,87,30.23,30.10,4,1,0,0.14
2014-10-14,80,71,61,70,66,60,99,87,67,30.11,29.92,10,3,0,0.01
2014-10-15,78,71,65,73,69,65,99,94,84,29.92,29.65,10,4,0,0.61
2014-10-16,72,62,51,65,59,51,99,92,68,29.67,29.61,7,2,0,0.15
2014-10-17,75,61,49,61,55,49,99,82,53,29.74,29.60,7,2,0,0.00
2014-10-18,75,61,50,62,51,44,99,74,45,29.74,29.52,9,4,0,0.00
2014-10-19,62,50,35,45,39,35,99,69,42,30.02,29.72,10,3,0,0.00
2014-10-20,66,48,30,47,40,30,99,78,49,30.07,29.86,9,2,0,0.00
2014-10-21,79,59,47,58,52,46,99,80,43,29.86,29.70,7,1,0,0.19
2014-10-22,59,54,51,57,53,50,99,98,93,29.78,29.71,8,2,0,0.55
2014-10-23,62,55,51,54,50,48,94,84,71,29.77,29.69,10,4,0,0.00
2014-10-24,74,59,49,54,48,44,90,69,45,29.83,29.74,9,4,0,0.00
2014-10-25,74,55,36,52,46,36,99,74,44,29.87,29.59,6,2,0,0.01
2014-10-26,69,57,40,52,43,38,96,64,35,29.82,29.55,12,3,0,0.00
2014-10-27,73,51,32,50,40,32,99,73,33,30.02,29.83,5,1,0,0.00
2014-10-28,83,66,44,62,56,42,97,73,44,29.98,29.83,6,3,0,0.00
2014-10-29,78,62,46,65,56,45,98,82,59,29.89,29.79,9,2,0,0.00
2014-10-30,68,50,38,50,43,37,99,83,46,29.97,29.87,6,1,0,0.00
2014-10-31,64,47,33,44,40,33,99,81,46,29.95,29.72,5,1,0,0.00
2014-11-1,51,46,42,50,44,39,99,93,82,29.73,29.62,8,3,0,1.19
2014-11-2,53,44,39,40,33,23,94,65,43,30.10,29.71,16,6,0,0.00
2014-11-3,61,46,32,36,30,24,85,55,29,30.23,30.11,11,3,0,0.00
2014-11-4,72,56,36,49,42,35,97,64,34,30.16,29.98,9,2,0,0.00
2014-11-5,69,56,42,52,48,40,96,74,50,30.11,29.98,5,1,0,0.00
2014-11-6,66,54,49,61,53,48,99,96,82,30.05,29.56,6,1,0,0.86
2014-11-7,58,48,37,50,40,31,99,75,46,29.95,29.58,16,7,0,0.00
2014-11-8,54,41,26,40,33,26,99,76,49,30.01,29.85,9,2,0,0.00
2014-11-9,64,48,32,47,40,32,99,79,48,29.96,29.84,6,1,0,0.00
2014-11-10,68,41,29,46,36,29,99,85,43,30.09,29.97,5,0,0,0.00
2014-11-11,71,51,35,63,50,35,99,94,73,30.02,29.78,2,0,0,0.00
2014-11-12,74,58,40,63,50,34,99,75,53,30.01,29.78,9,3,0,0.00
2014-11-13,47,40,33,37,34,31,97,81,61,30.06,29.95,5,2,0,0.01
2014-11-14,47,37,28,36,27,21,99,69,47,30.19,29.95,9,4,0,0.01
2014-11-15,51,35,22,32,25,20,95,70,41,30.33,30.20,8,2,0,0.00
2014-11-16,50,39,22,37,31,21,97,75,50,30.33,29.96,5,1,0,0.00
2014-11-17,56,47,42,56,46,35,99,95,77,29.95,29.44,12,3,0,1.16
2014-11-18,42,30,24,35,16,9,76,54,42,30.18,29.65,16,8,0,0.00
2014-11-19,38,30,20,21,15,9,70,54,42,30.29,30.01,14,5,0,0.00
2014-11-20,55,40,27,33,26,17,84,57,41,30.02,29.81,12,4,0,0.00
2014-11-21,40,29,16,18,15,13,93,58,37,30.49,30.02,14,5,0,0.00
2014-11-22,48,32,14,28,22,12,97,69,38,30.49,30.19,14,3,0,0.00
2014-11-23,61,48,36,57,38,24,96,68,49,30.20,29.79,6,3,0,0.00
2014-11-24,71,66,58,65,62,57,99,87,71,29.77,29.54,15,8,0,0.24
2014-11-25,66,54,44,62,46,38,96,77,53,30.09,29.66,8,2,0,0.00
2014-11-26,44,39,34,42,38,34,99,98,90,30.08,29.69,8,3,0,1.42
2014-11-27,49,36,27,39,33,26,99,89,68,30.07,29.88,6,2,0,0.00
2014-11-28,43,32,20,32,24,19,99,76,48,30.24,30.06,11,4,0,0.00
2014-11-29,46,33,19,36,27,18,98,79,54,30.29,30.12,9,2,0,0.00
2014-11-30,60,50,40,49,42,36,86,73,56,30.12,30.00,9,4,0,0.00
2014-12-1,71,56,42,56,50,41,99,81,59,30.38,30.05,7,3,0,0.27
2014-12-2,42,37,35,41,36,34,99,97,85,30.51,30.23,5,2,0,0.51
2014-12-3,52,45,38,51,44,35,99,96,79,30.23,29.95,12,4,0,0.04
2014-12-4,45,37,27,37,32,26,99,83,58,30.43,30.22,5,1,0,0.00
2014-12-5,46,41,37,42,38,32,99,89,73,30.46,30.27,3,0,0,0.03
2014-12-6,51,46,41,51,46,41,99,99,96,30.26,29.96,4,2,0,1.10
2014-12-7,48,38,31,41,30,18,99,75,48,30.48,30.11,9,3,0,0.25
2014-12-8,36,33,28,36,26,17,99,78,57,30.50,30.11,10,4,0,0.16
2014-12-9,44,40,36,43,40,36,99,98,95,30.11,29.70,7,4,0,0.46
2014-12-10,49,42,37,40,36,30,97,79,62,29.72,29.65,17,8,0,0.02
2014-12-11,41,35,32,32,30,27,97,80,61,29.91,29.72,12,5,0,0.00
2014-12-12,42,38,33,32,30,23,86,72,59,30.00,29.90,10,5,0,0.00
2014-12-13,45,34,26,34,29,25,97,82,65,30.01,29.90,9,3,0,0.00
2014-12-14,46,37,24,41,34,23,99,91,82,29.94,29.84,4,0,0,0.00
2014-12-15,51,41,30,42,37,30,99,86,71,30.04,29.94,4,0,0,0.00
2014-12-16,54,43,29,49,42,29,99,95,77,30.02,29.78,7,2,0,0.10
2014-12-17,55,45,36,47,39,28,99,80,57,29.95,29.79,12,5,0,0.00